Terminal Aerodrome Forecast
Issued by NWS Billings, MT

Home | Current Version | Previous Version | Text Only | Print | Product List | Glossary On
Versions: 1 2 3 4 5 6 7 8 9 10 11 12 13 14 15 16 17 18 19
000
FTUS45 KBYZ 222337
TAFSHR
TAF
KSHR 222337Z 2300/2324 VRB04KT 6SM -SN BKN025 OVC035
     FM231200 01011KT 3SM -SN BR SCT007 BKN015 OVC025
     FM231500 01011KT 1/2SM SN FG BKN004 BKN007 OVC012=

USA.gov is the U.S. government's official web portal to all federal, state and local government web resources and services.